Skip Navigation

Christman Field Latest Observations

Switch to english unitsOther observation timesWeekly graphs

Date Time
MST
Temp
°C
RH
%
DewPt
°C
Wind
m/s
Dir
°
Gust
m/s
Dir
°
Press
hPa
Solar
W/m^2
Prec
mm
2019-02-20 06:05 -8.5 40.2 -19.7 1.1 18 2.1 4 827.17 0.0 0.00
2019-02-20 06:00 -8.3 36.5 -20.6 2.5 260 4.6 280 827.12 0.0 0.00
2019-02-20 05:55 -7.9 34.8 -20.8 3.9 275 6.0 230 827.11 0.0 0.00
2019-02-20 05:50 -8.0 35.3 -20.7 4.5 254 6.4 255 827.06 0.0 0.00
2019-02-20 05:45 -8.0 41.1 -18.9 4.9 259 6.7 233 827.05 0.0 0.00
2019-02-20 05:40 -8.3 40.8 -19.3 5.1 219 8.4 230 827.03 0.0 0.00
2019-02-20 05:35 -8.9 44.2 -18.9 3.9 214 6.0 273 827.08 0.0 0.00
2019-02-20 05:30 -9.4 53.9 -17.0 4.6 232 8.8 267 827.09 0.0 0.00
2019-02-20 05:25 -13.1 62.6 -18.7 3.4 254 9.0 262 827.18 0.0 0.00
2019-02-20 05:20 -14.2 85.3 -16.1 1.5 151 3.6 248 827.10 0.0 0.00
2019-02-20 05:15 -13.7 84.3 -15.8 0.3 282 1.7 124 827.09 0.0 0.00
2019-02-20 05:10 -13.2 83.9 -15.4 1.2 37 2.9 314 827.09 0.0 0.00
2019-02-20 05:05 -12.9 83.2 -15.1 3.2 317 4.8 156 827.05 0.0 0.00
2019-02-20 05:00 -13.2 86.9 -14.9 1.3 140 3.5 140 827.23 0.0 0.00
2019-02-20 04:55 -12.6 86.9 -14.3 2.8 201 4.0 220 827.19 0.0 0.00
2019-02-20 04:50 -13.1 90.7 -14.2 1.8 183 3.9 183 827.27 0.0 0.00
2019-02-20 04:45 -15.0 90.4 -16.2 2.4 50 5.4 263 827.69 0.0 0.00
2019-02-20 04:40 -16.4 91.3 -17.4 1.8 108 2.5 115 827.52 0.0 0.00
2019-02-20 04:35 -16.9 85.2 -18.8 0.0 120 0.6 120 827.88 0.0 0.00
2019-02-20 04:30 -16.9 88.5 -18.4 0.6 80 2.4 343 827.68 0.0 0.00
2019-02-20 04:25 -16.7 84.8 -18.7 1.4 342 2.5 339 827.69 0.0 0.00
2019-02-20 04:20 -15.6 83.8 -17.7 0.9 352 2.4 352 827.59 0.0 0.00
2019-02-20 04:15 -15.5 88.1 -17.1 0.7 182 1.5 188 827.61 0.0 0.00
2019-02-20 04:10 -15.9 88.6 -17.3 0.9 187 1.5 206 827.61 0.0 0.00
2019-02-20 04:05 -16.4 88.6 -17.8 0.1 206 0.4 206 827.61 0.0 0.00
2019-02-20 04:00 -16.5 87.6 -18.1 0.4 276 2.0 284 827.57 0.0 0.00
2019-02-20 03:55 -16.8 86.6 -18.5 2.0 290 3.1 306 827.67 0.0 0.00
2019-02-20 03:50 -15.9 85.2 -17.8 0.0 41 0.0 41 827.60 0.0 0.00
2019-02-20 03:45 -15.1 87.8 -16.6 0.7 41 1.7 52 827.64 0.0 0.00
2019-02-20 03:40 -14.5 88.9 -16.0 1.2 57 2.0 162 827.62 0.0 0.00